Time;durP1;ratioP1;P1;durP2;ratioP2;P2;SDS_P1;SDS_P2;PMS_P1;PMS_P2;Temp;Humidity;BMP_temperature;BMP_pressure;BME280_temperature;BME280_humidity;BME280_pressure;Samples;Min_cycle;Max_cycle;Signal;HPM_P1;HPM_P2
2022/04/19 00:01:42;;;;;;;2.75;1.45;;;8.10;99.90;;;;;;5055035;28;20025;-75
2022/04/19 00:04:08;;;;;;;3.38;1.60;;;8.10;99.90;;;;;;5054632;28;20367;-75
2022/04/19 00:06:34;;;;;;;3.00;1.60;;;8.10;99.90;;;;;;5056234;28;20070;-75
2022/04/19 00:09:00;;;;;;;2.45;1.30;;;8.00;99.90;;;;;;5056135;28;20063;-76
2022/04/19 00:11:26;;;;;;;4.13;1.95;;;8.00;99.90;;;;;;5056180;28;20041;-76
2022/04/19 00:13:52;;;;;;;6.50;1.70;;;8.00;99.90;;;;;;5056008;28;20025;-76
2022/04/19 00:16:18;;;;;;;3.45;1.73;;;8.00;99.90;;;;;;5054572;28;20076;-76
2022/04/19 00:18:43;;;;;;;4.20;1.90;;;7.90;99.90;;;;;;5055653;28;20029;-76
2022/04/19 00:21:09;;;;;;;18.23;3.00;;;7.80;99.90;;;;;;5056051;28;20017;-76
2022/04/19 00:23:34;;;;;;;3.65;1.85;;;7.80;99.90;;;;;;5055550;28;20483;-76
2022/04/19 00:26:00;;;;;;;4.50;1.75;;;7.80;99.90;;;;;;5054536;28;20068;-76
2022/04/19 00:28:26;;;;;;;6.53;2.97;;;7.70;99.90;;;;;;5055963;28;20044;-76
2022/04/19 00:30:52;;;;;;;5.15;2.45;;;7.70;99.90;;;;;;5055956;28;20028;-76
2022/04/19 00:33:17;;;;;;;4.68;2.25;;;7.70;99.90;;;;;;5054256;28;20025;-76
2022/04/19 00:35:43;;;;;;;4.20;2.20;;;7.60;99.90;;;;;;5055717;28;20028;-75
2022/04/19 00:38:09;;;;;;;4.57;2.38;;;7.70;99.90;;;;;;5055407;28;20029;-75
2022/04/19 00:40:35;;;;;;;7.55;2.92;;;7.70;99.90;;;;;;5055761;28;20033;-75
2022/04/19 00:43:01;;;;;;;3.45;2.17;;;7.70;99.90;;;;;;5054922;28;20382;-75
2022/04/19 00:45:27;;;;;;;5.40;2.55;;;7.70;99.90;;;;;;5055170;28;20079;-75
2022/04/19 00:47:53;;;;;;;3.97;1.65;;;7.80;99.90;;;;;;5054986;28;20029;-75
2022/04/19 00:50:20;;;;;;;4.05;2.15;;;7.80;99.90;;;;;;5054714;28;20474;-75
2022/04/19 00:52:46;;;;;;;3.78;2.13;;;7.90;99.90;;;;;;5053186;28;20501;-75
2022/04/19 00:55:12;;;;;;;4.78;2.05;;;7.90;99.90;;;;;;5053828;28;20029;-75
2022/04/19 00:57:39;;;;;;;3.85;1.60;;;7.90;99.90;;;;;;5055208;28;20033;-75
2022/04/19 01:00:08;;;;;;;5.22;2.35;;;7.90;99.90;;;;;;5053735;28;20070;-75
2022/04/19 01:02:36;;;;;;;3.80;1.83;;;7.80;99.90;;;;;;5054886;28;20031;-75
2022/04/19 01:05:02;;;;;;;8.80;1.92;;;7.70;99.90;;;;;;5054880;28;20068;-75
2022/04/19 01:07:28;;;;;;;4.00;2.22;;;7.70;99.90;;;;;;5053601;28;20386;-75
2022/04/19 01:09:54;;;;;;;6.03;2.40;;;7.60;99.90;;;;;;5055129;28;20021;-76
2022/04/19 01:15:07;;;;;;;4.63;2.05;;;7.40;99.90;;;;;;5055067;28;20044;-75
2022/04/19 01:17:35;;;;;;;5.47;2.13;;;7.30;99.90;;;;;;5053440;28;20047;-75
2022/04/19 01:20:02;;;;;;;5.60;2.03;;;7.30;99.90;;;;;;5054977;28;20032;-75
2022/04/19 01:22:32;;;;;;;7.80;2.60;;;7.20;99.90;;;;;;5052983;28;20287;-75
2022/04/19 01:24:58;;;;;;;6.63;2.45;;;7.20;99.90;;;;;;5053316;28;20048;-75
2022/04/19 01:27:23;;;;;;;5.38;2.92;;;7.20;99.90;;;;;;5054648;28;20436;-75
2022/04/19 01:29:51;;;;;;;5.63;3.10;;;7.10;99.90;;;;;;5054510;28;20017;-75
2022/04/19 01:32:17;;;;;;;5.45;2.58;;;7.10;99.90;;;;;;5053995;28;20029;-75
2022/04/19 01:34:42;;;;;;;6.25;3.25;;;7.10;99.90;;;;;;5054421;28;20025;-75
2022/04/19 01:37:09;;;;;;;6.10;3.13;;;7.10;99.90;;;;;;5052978;28;20337;-75
2022/04/19 01:40:35;;;;;;;6.68;3.15;;;7.00;99.90;;;;;;5053507;28;20359;-75
2022/04/19 01:42:30;;;;;;;7.20;3.63;;;7.00;99.90;;;;;;5044957;28;20496;-75
2022/04/19 01:44:57;;;;;;;7.82;3.30;;;6.90;99.90;;;;;;5054121;28;20096;-75
2022/04/19 01:47:23;;;;;;;9.75;3.28;;;6.90;99.90;;;;;;5054210;28;20029;-75
2022/04/19 01:49:48;;;;;;;5.38;3.10;;;6.90;99.90;;;;;;5054396;28;20017;-75
2022/04/19 01:52:14;;;;;;;7.07;3.85;;;6.90;99.90;;;;;;5054393;28;20029;-75
2022/04/19 01:54:39;;;;;;;8.80;3.50;;;6.90;99.90;;;;;;5053942;28;20071;-75
2022/04/19 01:57:05;;;;;;;6.38;3.08;;;6.90;99.90;;;;;;5053973;28;20029;-75
2022/04/19 01:59:30;;;;;;;7.30;3.17;;;6.90;99.90;;;;;;5054795;28;20497;-75
2022/04/19 02:01:56;;;;;;;6.15;2.92;;;6.80;99.90;;;;;;5053812;28;20025;-75
2022/04/19 02:04:21;;;;;;;6.22;3.38;;;6.80;99.90;;;;;;5052480;28;20537;-75
2022/04/19 02:06:47;;;;;;;6.75;3.40;;;6.80;99.90;;;;;;5052902;28;20021;-75
2022/04/19 02:09:13;;;;;;;6.82;3.05;;;6.80;99.90;;;;;;5053696;28;20111;-75
2022/04/19 02:11:38;;;;;;;5.30;2.53;;;6.80;99.90;;;;;;5053011;28;20060;-75
2022/04/19 02:14:04;;;;;;;6.70;2.92;;;6.80;99.90;;;;;;5053808;28;20057;-75
2022/04/19 02:16:31;;;;;;;5.05;2.65;;;6.80;99.90;;;;;;5053726;28;20381;-75
2022/04/19 02:18:57;;;;;;;4.13;2.50;;;6.90;99.90;;;;;;5052301;28;20013;-75
2022/04/19 02:21:23;;;;;;;5.38;2.60;;;6.90;99.90;;;;;;5052049;28;20040;-75
2022/04/19 02:23:49;;;;;;;4.38;2.60;;;6.90;99.90;;;;;;5053443;28;20033;-75
2022/04/19 02:26:15;;;;;;;4.72;2.30;;;6.90;99.90;;;;;;5053762;28;20021;-75
2022/04/19 02:28:40;;;;;;;4.75;2.50;;;6.90;99.90;;;;;;5053991;28;20370;-75
2022/04/19 02:31:06;;;;;;;5.15;2.33;;;6.90;99.90;;;;;;5053474;28;20025;-75
2022/04/19 02:33:31;;;;;;;5.53;2.60;;;6.90;99.90;;;;;;5053716;28;20439;-75
2022/04/19 02:35:57;;;;;;;4.30;2.15;;;6.80;99.90;;;;;;5053854;28;20021;-75
2022/04/19 02:38:22;;;;;;;5.18;2.33;;;6.80;99.90;;;;;;5053353;28;20029;-75
2022/04/19 02:40:49;;;;;;;3.88;2.35;;;6.80;99.90;;;;;;5053916;28;20115;-76
2022/04/19 02:43:17;;;;;;;5.47;2.65;;;6.80;99.90;;;;;;5052177;28;20021;-75
2022/04/19 02:45:43;;;;;;;5.18;2.40;;;6.70;99.90;;;;;;5052250;28;20044;-75
2022/04/19 02:48:09;;;;;;;5.45;2.53;;;6.70;99.90;;;;;;5052526;28;20433;-75
2022/04/19 02:50:40;;;;;;;5.85;3.13;;;6.70;99.90;;;;;;5053349;28;20044;-76
2022/04/19 02:53:06;;;;;;;6.22;2.72;;;6.60;99.90;;;;;;5053776;28;20143;-75
2022/04/19 02:55:32;;;;;;;4.13;2.22;;;6.60;99.90;;;;;;5052154;28;20509;-76
2022/04/19 02:57:57;;;;;;;4.57;2.92;;;6.60;99.90;;;;;;5053247;28;20017;-75
2022/04/19 03:00:24;;;;;;;6.45;2.55;;;6.60;99.90;;;;;;5053532;28;20025;-76
2022/04/19 03:02:51;;;;;;;5.53;2.63;;;6.60;99.90;;;;;;5053045;28;20485;-76
2022/04/19 03:05:18;;;;;;;6.82;2.58;;;6.50;99.90;;;;;;5053355;28;20017;-75
2022/04/19 03:07:44;;;;;;;6.13;3.00;;;6.50;99.90;;;;;;5053489;28;20025;-75
2022/04/19 03:10:10;;;;;;;4.90;2.72;;;6.50;99.90;;;;;;5052061;28;20063;-75
2022/04/19 03:12:36;;;;;;;5.25;2.83;;;6.40;99.90;;;;;;5053548;28;20409;-75
2022/04/19 03:15:02;;;;;;;3.78;2.30;;;6.40;99.90;;;;;;5055992;28;20111;-75
2022/04/19 03:17:27;;;;;;;7.20;2.72;;;6.50;99.90;;;;;;5057149;28;20021;-75
2022/04/19 03:19:54;;;;;;;4.32;2.95;;;6.40;99.90;;;;;;5057063;28;20021;-75
2022/04/19 03:22:19;;;;;;;5.10;2.72;;;6.40;99.90;;;;;;5056717;28;20067;-75
2022/04/19 03:27:41;;;;;;;5.70;2.45;;;6.40;99.90;;;;;;5057560;28;20035;-75
2022/04/19 03:30:14;;;;;;;4.88;2.65;;;6.30;99.90;;;;;;5056830;28;20043;-75
2022/04/19 03:32:43;;;;;;;9.30;3.08;;;6.30;99.90;;;;;;5055280;28;20490;-75
2022/04/19 03:35:10;;;;;;;7.00;2.67;;;6.20;99.90;;;;;;5056678;28;20025;-75
2022/04/19 03:37:39;;;;;;;6.20;2.45;;;6.20;99.90;;;;;;5056571;28;20065;-75
2022/04/19 03:40:06;;;;;;;5.15;2.63;;;6.20;99.90;;;;;;5055347;28;20017;-75
2022/04/19 03:42:32;;;;;;;8.20;3.17;;;6.20;99.90;;;;;;5056301;28;20099;-75
2022/04/19 03:44:58;;;;;;;4.10;2.03;;;6.20;99.90;;;;;;5056516;28;20021;-75
2022/04/19 03:47:23;;;;;;;4.13;2.30;;;6.10;99.90;;;;;;5056335;28;20071;-75
2022/04/19 03:49:49;;;;;;;6.60;2.80;;;6.10;99.90;;;;;;5055060;28;20035;-75
2022/04/19 03:52:14;;;;;;;4.97;2.63;;;6.10;99.90;;;;;;5056110;28;20167;-75
2022/04/19 03:54:40;;;;;;;5.95;3.20;;;6.20;99.90;;;;;;5056014;28;20096;-75
2022/04/19 03:57:08;;;;;;;6.32;2.42;;;6.00;99.90;;;;;;5056091;28;20021;-76
2022/04/19 03:59:36;;;;;;;6.57;3.00;;;6.00;99.90;;;;;;5056436;28;20017;-76
2022/04/19 04:02:02;;;;;;;8.17;2.87;;;5.90;99.90;;;;;;5054844;28;20032;-76
2022/04/19 04:04:30;;;;;;;5.97;2.67;;;5.90;99.90;;;;;;5054694;28;20024;-75
2022/04/19 04:07:00;;;;;;;6.85;2.55;;;5.80;99.90;;;;;;5056277;28;20474;-75
2022/04/19 04:09:32;;;;;;;5.90;3.15;;;5.80;99.90;;;;;;5054640;28;20021;-76
2022/04/19 04:12:02;;;;;;;5.03;3.08;;;5.80;99.90;;;;;;5056192;28;20021;-76
2022/04/19 04:14:29;;;;;;;5.28;3.22;;;5.80;99.90;;;;;;5054506;28;20071;-76
2022/04/19 04:16:54;;;;;;;4.40;2.83;;;5.70;99.90;;;;;;5055779;28;20029;-76
2022/04/19 04:19:20;;;;;;;5.88;3.03;;;5.70;99.90;;;;;;5055560;28;20032;-76
2022/04/19 04:21:45;;;;;;;5.10;2.63;;;5.70;99.90;;;;;;5055492;28;20494;-76
2022/04/19 04:24:11;;;;;;;5.90;2.70;;;6.00;99.90;;;;;;5055501;28;20040;-76
2022/04/19 04:26:36;;;;;;;5.78;2.65;;;5.60;99.90;;;;;;5055485;28;20021;-76
2022/04/19 04:29:02;;;;;;;7.38;3.22;;;5.60;99.90;;;;;;5055802;28;20021;-75
2022/04/19 04:31:27;;;;;;;7.00;3.35;;;5.50;99.90;;;;;;5055490;28;20482;-73
2022/04/19 04:33:53;;;;;;;8.30;2.97;;;5.50;99.90;;;;;;5055576;28;20025;-73
2022/04/19 04:36:19;;;;;;;4.50;2.60;;;5.50;99.90;;;;;;5055364;28;20054;-73
2022/04/19 04:38:45;;;;;;;4.85;2.97;;;5.50;99.90;;;;;;5054009;28;20028;-73
2022/04/19 04:41:15;;;;;;;5.55;3.33;;;5.50;99.90;;;;;;5055105;28;20033;-73
2022/04/19 04:43:40;;;;;;;9.05;3.45;;;5.50;99.90;;;;;;5055089;28;20481;-73
2022/04/19 04:51:35;;;;;;;5.30;2.53;;;5.50;99.90;;;;;;5055424;28;20032;-73
2022/04/19 04:54:00;;;;;;;4.57;2.45;;;5.50;99.90;;;;;;5055454;28;20389;-73
2022/04/19 04:56:26;;;;;;;5.70;2.40;;;5.50;99.90;;;;;;5054998;28;20040;-73
2022/04/19 04:58:51;;;;;;;3.55;2.35;;;5.50;99.90;;;;;;5055038;28;20031;-73
2022/04/19 05:01:17;;;;;;;6.85;3.53;;;5.50;99.90;;;;;;5055182;28;20393;-73
2022/04/19 05:03:44;;;;;;;6.22;3.10;;;5.60;99.90;;;;;;5054726;28;20143;-72
2022/04/19 05:06:09;;;;;;;6.18;2.78;;;5.70;99.90;;;;;;5054980;28;20035;-72
2022/04/19 05:08:35;;;;;;;6.38;2.97;;;5.70;99.90;;;;;;5054971;28;20021;-73
2022/04/19 05:11:01;;;;;;;7.22;3.00;;;5.80;99.90;;;;;;5055254;28;20020;-73
2022/04/19 05:13:26;;;;;;;7.45;3.60;;;6.00;99.90;;;;;;5053533;28;20021;-72
2022/04/19 05:15:52;;;;;;;7.60;3.05;;;6.10;99.90;;;;;;5054600;28;20021;-72
2022/04/19 05:18:17;;;;;;;12.07;3.53;;;6.20;99.90;;;;;;5055170;28;20028;-73
2022/04/19 05:20:43;;;;;;;8.35;3.08;;;6.30;99.90;;;;;;5054856;28;20017;-73
2022/04/19 05:23:09;;;;;;;7.35;3.33;;;6.70;99.90;;;;;;5054440;28;20087;-73
2022/04/19 05:25:34;;;;;;;5.63;2.95;;;6.50;99.90;;;;;;5054236;28;20104;-73
2022/04/19 05:28:00;;;;;;;8.55;4.05;;;6.60;99.90;;;;;;5054556;28;20028;-73
2022/04/19 05:30:26;;;;;;;6.95;3.45;;;6.80;99.90;;;;;;5054688;28;20017;-73
2022/04/19 05:32:52;;;;;;;7.57;2.90;;;6.90;99.90;;;;;;5054371;28;20534;-73
2022/04/19 05:35:20;;;;;;;9.05;3.58;;;7.00;99.90;;;;;;5054271;28;20017;-73
2022/04/19 05:37:46;;;;;;;6.55;3.10;;;7.10;99.90;;;;;;5053880;28;20071;-72
2022/04/19 05:40:14;;;;;;;10.10;4.10;;;7.30;99.90;;;;;;5054400;28;20053;-72
2022/04/19 05:42:40;;;;;;;7.53;3.63;;;7.30;99.90;;;;;;5054178;28;20025;-72
2022/04/19 05:45:06;;;;;;;9.52;4.15;;;7.40;99.90;;;;;;5054268;28;20029;-72
2022/04/19 05:47:35;;;;;;;12.57;3.95;;;7.50;99.90;;;;;;5053259;28;20466;-72
2022/04/19 05:50:00;;;;;;;7.72;3.40;;;7.60;99.90;;;;;;5053164;28;20024;-71
2022/04/19 05:52:26;;;;;;;10.27;3.90;;;7.70;99.90;;;;;;5054410;28;20030;-71
2022/04/19 05:54:51;;;;;;;10.27;3.25;;;7.80;99.90;;;;;;5052903;28;20382;-71
2022/04/19 05:57:22;;;;;;;8.00;3.88;;;7.90;99.90;;;;;;5054694;28;20056;-71
2022/04/19 05:59:48;;;;;;;10.80;3.65;;;8.10;99.90;;;;;;5054314;28;20017;-73
2022/04/19 06:04:59;;;;;;;8.52;3.70;;;8.30;99.90;;;;;;5054938;28;20032;-71
2022/04/19 06:07:27;;;;;;;6.00;3.10;;;8.50;99.90;;;;;;5054018;28;20032;-71
2022/04/19 06:09:52;;;;;;;11.07;3.70;;;8.70;99.90;;;;;;5053584;28;20020;-72
2022/04/19 06:12:18;;;;;;;9.75;4.25;;;8.80;99.90;;;;;;5053527;28;20116;-72
2022/04/19 06:14:44;;;;;;;6.78;3.13;;;9.00;99.90;;;;;;5052021;28;20052;-72
2022/04/19 06:17:14;;;;;;;9.02;3.45;;;9.10;99.90;;;;;;5053550;28;20029;-71
2022/04/19 06:19:40;;;;;;;7.05;3.22;;;9.20;99.90;;;;;;5053581;28;20013;-71
2022/04/19 06:22:06;;;;;;;8.07;3.55;;;9.40;99.90;;;;;;5053331;28;20116;-71
2022/04/19 06:24:32;;;;;;;9.52;3.75;;;9.50;99.90;;;;;;5053271;28;20454;-71
2022/04/19 06:26:57;;;;;;;8.60;3.60;;;9.70;99.90;;;;;;5051883;28;20152;-71
2022/04/19 06:29:23;;;;;;;12.05;4.43;;;9.90;99.90;;;;;;5053125;28;20025;-71
2022/04/19 06:31:48;;;;;;;8.45;3.53;;;10.10;99.90;;;;;;5051772;28;20601;-71
2022/04/19 06:34:14;;;;;;;8.15;3.67;;;10.20;99.90;;;;;;5053277;28;20581;-71
2022/04/19 06:36:40;;;;;;;10.48;3.85;;;10.40;99.90;;;;;;5051774;28;20385;-71
2022/04/19 06:39:06;;;;;;;8.70;3.72;;;10.60;99.90;;;;;;5053440;28;20021;-71
2022/04/19 06:41:32;;;;;;;12.35;3.85;;;10.70;99.90;;;;;;5052885;28;20018;-71
2022/04/19 06:43:59;;;;;;;7.85;3.97;;;10.90;99.90;;;;;;5052802;28;20055;-72
2022/04/19 06:46:25;;;;;;;7.95;3.55;;;11.10;99.90;;;;;;5053436;28;20017;-71
2022/04/19 06:48:54;;;;;;;10.38;3.70;;;11.20;99.90;;;;;;5052926;28;20021;-72
2022/04/19 06:51:23;;;;;;;7.22;3.10;;;11.40;98.90;;;;;;5057098;28;20025;-71
2022/04/19 06:53:49;;;;;;;7.93;3.05;;;12.40;97.40;;;;;;5056855;28;20025;-72
2022/04/19 06:56:15;;;;;;;9.82;3.72;;;11.80;97.50;;;;;;5055498;28;20021;-72
2022/04/19 06:58:42;;;;;;;9.48;3.22;;;12.00;96.90;;;;;;5056772;28;20031;-71
2022/04/19 07:01:09;;;;;;;10.15;3.63;;;12.10;96.20;;;;;;5056590;28;20082;-71
2022/04/19 07:03:35;;;;;;;7.90;3.30;;;12.20;95.50;;;;;;5055235;28;20021;-71
2022/04/19 07:06:00;;;;;;;9.00;3.45;;;12.40;94.40;;;;;;5056857;28;20025;-71
2022/04/19 07:08:26;;;;;;;9.48;3.05;;;12.60;93.00;;;;;;5057095;28;20451;-71
2022/04/19 07:10:52;;;;;;;8.88;2.85;;;12.80;91.80;;;;;;5056361;28;20029;-71
2022/04/19 07:13:18;;;;;;;6.10;1.98;;;12.90;91.00;;;;;;5056784;28;20017;-71
2022/04/19 07:15:43;;;;;;;8.27;2.65;;;13.00;88.90;;;;;;5055140;28;20116;-71
2022/04/19 07:18:09;;;;;;;7.20;2.17;;;13.20;86.30;;;;;;5056407;28;20498;-71
2022/04/19 07:28:47;;;;;;;9.55;3.08;;;13.70;81.70;;;;;;5056737;28;20083;-73
2022/04/19 07:31:13;;;;;;;5.93;1.60;;;13.90;77.90;;;;;;5056329;28;20454;-73
2022/04/19 07:33:39;;;;;;;5.80;1.92;;;14.00;77.50;;;;;;5038168;28;20112;-73
2022/04/19 07:36:06;;;;;;;6.20;2.53;;;14.20;76.70;;;;;;5038124;28;20504;-73
2022/04/19 07:38:32;;;;;;;5.07;1.63;;;14.30;73.90;;;;;;5056537;28;20025;-73
2022/04/19 07:40:57;;;;;;;5.65;2.15;;;14.50;73.60;;;;;;5055874;28;20491;-74
2022/04/19 07:43:23;;;;;;;5.18;1.67;;;14.70;71.00;;;;;;5056050;28;20033;-74
2022/04/19 07:45:49;;;;;;;3.63;1.20;;;14.80;69.30;;;;;;5055855;28;20021;-73
2022/04/19 07:48:15;;;;;;;6.43;2.70;;;15.00;68.20;;;;;;5055816;28;20122;-73
2022/04/19 07:50:42;;;;;;;6.50;2.20;;;15.10;68.40;;;;;;5055757;28;20105;-73
2022/04/19 07:53:09;;;;;;;4.00;1.42;;;15.20;67.30;;;;;;5037920;28;20477;-73
2022/04/19 07:55:35;;;;;;;3.80;1.45;;;15.30;66.10;;;;;;5056019;28;20390;-73
2022/04/19 07:58:00;;;;;;;4.05;1.33;;;15.50;63.20;;;;;;5055665;28;20036;-73
2022/04/19 08:00:27;;;;;;;4.60;1.08;;;15.60;63.80;;;;;;5037112;28;20071;-73
2022/04/19 08:02:55;;;;;;;2.90;1.27;;;15.80;63.70;;;;;;5055479;28;20017;-73
2022/04/19 08:05:21;;;;;;;4.63;1.52;;;15.90;61.50;;;;;;5055496;28;20071;-73
2022/04/19 08:07:48;;;;;;;5.03;1.23;;;16.00;60.90;;;;;;5055502;28;20494;-73
2022/04/19 08:10:14;;;;;;;3.47;1.15;;;16.20;61.40;;;;;;5037627;28;20021;-73
2022/04/19 08:12:42;;;;;;;6.43;1.42;;;16.30;61.70;;;;;;5055452;28;20048;-73
2022/04/19 08:15:08;;;;;;;3.42;1.00;;;16.50;60.50;;;;;;5055438;28;20063;-73
2022/04/19 08:17:34;;;;;;;2.47;0.55;;;16.60;59.40;;;;;;5037429;28;20020;-73
2022/04/19 08:20:01;;;;;;;2.95;0.75;;;16.80;59.10;;;;;;5055510;28;20025;-73
2022/04/19 08:22:27;;;;;;;2.22;0.50;;;16.90;58.20;;;;;;5054915;28;20066;-73
2022/04/19 08:24:52;;;;;;;1.27;0.45;;;17.10;56.40;;;;;;5038442;28;20480;-73
2022/04/19 08:27:22;;;;;;;3.20;0.57;;;17.20;55.20;;;;;;5055098;28;20108;-73
2022/04/19 08:29:48;;;;;;;2.25;0.80;;;17.30;54.90;;;;;;5055406;28;20032;-73
2022/04/19 08:32:14;;;;;;;2.13;0.60;;;17.40;54.20;;;;;;5054970;28;20432;-73
2022/04/19 08:34:40;;;;;;;3.70;1.02;;;17.50;52.70;;;;;;5037169;28;20028;-73
2022/04/19 08:37:07;;;;;;;1.95;0.55;;;17.50;53.80;;;;;;5037083;28;20029;-73
2022/04/19 08:39:33;;;;;;;2.85;0.93;;;17.50;53.10;;;;;;5037015;28;20049;-73
2022/04/19 08:41:58;;;;;;;3.30;1.10;;;17.50;52.10;;;;;;5054685;28;20370;-73
2022/04/19 08:44:25;;;;;;;3.63;0.55;;;17.70;51.80;;;;;;5036863;28;20028;-73
2022/04/19 08:46:54;;;;;;;3.15;1.40;;;17.70;51.40;;;;;;5054702;28;20021;-73
2022/04/19 08:49:20;;;;;;;;;;;17.80;51.60;;;;;;5055477;28;20021;-73
2022/04/19 08:51:45;;;;;;;2.40;0.73;;;17.90;50.60;;;;;;5036717;28;19905;-73
2022/04/19 08:59:40;;;;;;;2.25;0.70;;;18.20;50.00;;;;;;5054779;28;20052;-73
2022/04/19 09:02:07;;;;;;;3.63;0.82;;;18.30;49.60;;;;;;5054249;28;20032;-73
2022/04/19 09:04:33;;;;;;;2.92;1.00;;;18.40;48.20;;;;;;5054256;28;20025;-75
2022/04/19 09:07:00;;;;;;;3.58;1.13;;;18.40;47.40;;;;;;5036331;28;20017;-75
2022/04/19 09:09:28;;;;;;;4.97;1.08;;;18.40;48.00;;;;;;5054562;28;20029;-75
2022/04/19 09:12:05;;;;;;;3.58;1.50;;;18.50;47.90;;;;;;5053360;28;20036;-75
2022/04/19 09:14:31;;;;;;;4.60;0.95;;;18.40;48.80;;;;;;5054474;28;20021;-75
2022/04/19 09:17:07;;;;;;;4.43;1.30;;;18.40;47.40;;;;;;5036310;28;20465;-74
2022/04/19 09:19:33;;;;;;;3.65;1.13;;;18.40;47.70;;;;;;5054376;28;20021;-75
2022/04/19 09:21:58;;;;;;;4.25;1.35;;;18.50;47.80;;;;;;5036135;28;20390;-75
2022/04/19 09:24:25;;;;;;;2.88;1.40;;;18.50;47.00;;;;;;5053925;28;20393;-75
2022/04/19 09:26:52;;;;;;;6.15;1.30;;;18.60;46.80;;;;;;5053977;28;20102;-75
2022/04/19 09:29:21;;;;;;;4.07;1.17;;;18.60;47.00;;;;;;5054239;28;20074;-74
2022/04/19 09:31:57;;;;;;;4.53;1.20;;;18.60;46.60;;;;;;5036037;28;20466;-75
2022/04/19 09:34:23;;;;;;;6.28;1.67;;;18.70;46.90;;;;;;5053938;28;20032;-75
2022/04/19 09:36:53;;;;;;;4.82;1.63;;;18.80;46.10;;;;;;5054052;28;20028;-75
2022/04/19 09:39:26;;;;;;;4.68;1.30;;;18.90;46.50;;;;;;5053797;28;20492;-74
2022/04/19 09:42:07;;;;;;;2.63;1.00;;;18.90;45.30;;;;;;5053683;28;20021;-74
2022/04/19 09:44:37;;;;;;;2.85;0.75;;;18.90;44.70;;;;;;5053992;28;20021;-75
2022/04/19 09:47:04;;;;;;;2.40;0.73;;;19.00;45.40;;;;;;5035726;28;20104;-74
2022/04/19 09:49:51;;;;;;;4.43;1.35;;;19.10;45.50;;;;;;5053506;28;20025;-74
2022/04/19 09:52:22;;;;;;;4.20;1.02;;;19.20;44.80;;;;;;5035633;28;20465;-75
2022/04/19 09:55:05;;;;;;;4.60;1.10;;;19.20;45.70;;;;;;5053516;28;20486;-74
2022/04/19 09:57:32;;;;;;;3.08;0.93;;;19.30;45.40;;;;;;5053689;28;20128;-75
2022/04/19 09:59:59;;;;;;;2.40;0.67;;;19.40;44.70;;;;;;5053714;28;20053;-75
2022/04/19 10:08:18;;;;;;;2.45;0.60;;;19.40;41.40;;;;;;5053608;28;20048;-74
2022/04/19 10:10:46;;;;;;;3.55;1.23;;;19.50;42.80;;;;;;5053769;28;20017;-73
2022/04/19 10:13:13;;;;;;;4.60;0.90;;;19.60;42.20;;;;;;5053254;28;20021;-73
2022/04/19 10:15:40;;;;;;;3.70;1.00;;;19.70;41.70;;;;;;5053257;28;20470;-73
2022/04/19 10:18:10;;;;;;;2.08;0.73;;;19.80;42.00;;;;;;5053156;28;20028;-73
2022/04/19 10:21:00;;;;;;;3.25;0.85;;;19.90;41.20;;;;;;5053528;28;20056;-73
2022/04/19 10:23:45;;;;;;;4.57;1.70;;;20.00;40.70;;;;;;5034731;28;20032;-73
2022/04/19 10:26:13;;;;;;;2.75;1.02;;;20.10;41.10;;;;;;5053141;28;20076;-73
2022/04/19 10:28:39;;;;;;;7.68;0.98;;;20.10;40.60;;;;;;5035219;28;20032;-73
2022/04/19 10:31:05;;;;;;;2.95;0.98;;;20.20;40.60;;;;;;5053290;28;20022;-73
2022/04/19 10:33:50;;;;;;;3.10;0.98;;;20.30;40.70;;;;;;5053548;28;20060;-73
2022/04/19 10:36:34;;;;;;;3.13;0.88;;;20.50;40.60;;;;;;5053068;28;20032;-73
2022/04/19 10:39:15;;;;;;;5.20;1.23;;;20.60;41.20;;;;;;5052903;28;20492;-73
2022/04/19 10:42:00;;;;;;;3.50;0.85;;;20.50;40.30;;;;;;5034964;28;20130;-73
2022/04/19 10:44:38;;;;;;;2.83;0.95;;;20.70;41.00;;;;;;5052900;28;20052;-73
2022/04/19 10:47:15;;;;;;;3.13;0.73;;;20.80;39.30;;;;;;5053350;28;20017;-73
2022/04/19 10:50:05;;;;;;;4.78;1.00;;;20.90;40.00;;;;;;5035109;28;20129;-73
2022/04/19 10:52:38;;;;;;;2.90;0.93;;;20.90;39.40;;;;;;5034974;28;20029;-73
2022/04/19 10:55:04;;;;;;;2.60;0.90;;;21.00;39.60;;;;;;5053379;28;20044;-73
2022/04/19 11:00:33;;;;;;;2.00;0.65;;;21.30;40.00;;;;;;5053588;28;20099;-73
2022/04/19 11:03:06;;;;;;;4.80;0.90;;;21.30;40.50;;;;;;5052717;28;20466;-73
2022/04/19 11:05:45;;;;;;;4.43;0.90;;;21.40;39.50;;;;;;5034895;28;20493;-73
2022/04/19 11:08:22;;;;;;;5.53;1.52;;;21.60;39.70;;;;;;5053073;28;20040;-73
2022/04/19 11:10:49;;;;;;;7.20;0.95;;;21.70;40.20;;;;;;5034762;28;20029;-73
2022/04/19 11:13:15;;;;;;;2.33;0.68;;;21.80;39.30;;;;;;5035370;28;20108;-73
2022/04/19 11:15:42;;;;;;;3.60;1.10;;;21.90;40.20;;;;;;5052612;28;20080;-73
2022/04/19 11:18:25;;;;;;;1.58;0.45;;;22.00;38.70;;;;;;5052691;28;20071;-73
2022/04/19 11:20:52;;;;;;;3.78;1.10;;;22.00;38.40;;;;;;5034736;28;20525;-73
2022/04/19 11:23:21;;;;;;;2.83;0.80;;;22.20;39.20;;;;;;5052328;28;20397;-73
2022/04/19 11:25:48;;;;;;;2.80;0.70;;;22.20;39.30;;;;;;5052809;28;20014;-73
2022/04/19 11:28:15;;;;;;;3.65;0.57;;;22.40;38.20;;;;;;5052817;28;20020;-72
2022/04/19 11:30:49;;;;;;;2.65;0.35;;;22.50;39.40;;;;;;5052344;28;20524;-75
2022/04/19 11:33:22;;;;;;;5.18;0.82;;;22.80;38.60;;;;;;5052471;28;20445;-75
2022/04/19 11:36:02;;;;;;;2.60;0.45;;;22.80;36.80;;;;;;5054170;28;20017;-75
2022/04/19 11:38:29;;;;;;;2.67;0.80;;;22.80;36.90;;;;;;5055963;28;20037;-75
2022/04/19 11:46:46;;;;;;;1.13;0.25;;;23.10;36.30;;;;;;5056154;28;20063;-75
2022/04/19 11:49:20;;;;;;;2.55;0.57;;;23.10;36.30;;;;;;5056138;28;20404;-73
2022/04/19 11:51:52;;;;;;;2.35;0.60;;;23.20;38.60;;;;;;5038162;28;20021;-77
2022/04/19 11:54:22;;;;;;;2.33;0.82;;;23.30;36.70;;;;;;5056277;28;20083;-77
2022/04/19 11:56:52;;;;;;;1.92;0.38;;;23.20;37.00;;;;;;5056188;28;20021;-75
2022/04/19 11:59:17;;;;;;;3.33;0.88;;;23.20;36.80;;;;;;5055886;28;20552;-75
2022/04/19 12:01:49;;;;;;;1.85;0.52;;;23.40;37.40;;;;;;5037504;28;20066;-75
2022/04/19 12:04:15;;;;;;;3.00;0.82;;;23.60;37.00;;;;;;5055766;28;20021;-75
2022/04/19 12:07:02;;;;;;;5.32;0.88;;;23.80;38.60;;;;;;5055413;28;20029;-75
2022/04/19 12:09:31;;;;;;;2.80;0.88;;;23.90;38.10;;;;;;5056102;28;20021;-75
2022/04/19 12:11:58;;;;;;;2.00;0.93;;;23.90;37.40;;;;;;5055485;28;20059;-75
2022/04/19 12:14:24;;;;;;;3.33;0.35;;;23.80;37.90;;;;;;5055344;28;20021;-75
2022/04/19 12:17:00;;;;;;;3.63;0.40;;;23.90;38.40;;;;;;5055336;28;20029;-75
2022/04/19 12:19:41;;;;;;;2.90;0.75;;;24.10;37.50;;;;;;5055284;28;20028;-75
2022/04/19 12:22:23;;;;;;;2.70;0.73;;;24.10;36.90;;;;;;5055073;28;20505;-75
2022/04/19 12:24:54;;;;;;;4.68;0.65;;;24.00;37.00;;;;;;5037310;28;20112;-75
2022/04/19 12:27:25;;;;;;;3.55;0.50;;;24.10;37.60;;;;;;5054685;28;20009;-76
2022/04/19 12:29:56;;;;;;;3.17;0.50;;;24.20;37.00;;;;;;5055208;28;20453;-75
2022/04/19 12:32:22;;;;;;;3.00;0.80;;;24.30;37.90;;;;;;5054187;28;20016;-75
2022/04/19 12:34:47;;;;;;;2.65;0.57;;;24.30;38.00;;;;;;5036560;28;20021;-76
2022/04/19 12:37:17;;;;;;;3.85;0.95;;;24.40;38.70;;;;;;5059029;28;20032;-75
2022/04/19 12:39:59;;;;;;;3.22;1.13;;;24.40;38.90;;;;;;5053946;28;20398;-75
2022/04/19 12:42:26;;;;;;;3.08;1.05;;;24.40;37.20;;;;;;5054145;28;20090;-75
2022/04/19 12:45:09;;;;;;;5.47;0.98;;;24.40;38.10;;;;;;5054761;28;20485;-75
2022/04/19 12:47:34;;;;;;;4.22;0.60;;;24.30;40.00;;;;;;5054352;28;20466;-75
2022/04/19 12:50:11;;;;;;;3.38;1.08;;;24.40;37.60;;;;;;5036839;28;20025;-75
2022/04/19 12:52:37;;;;;;;5.05;1.20;;;24.40;37.50;;;;;;5033877;28;20111;-75
2022/04/19 12:55:04;;;;;;;11.55;1.05;;;24.50;36.80;;;;;;5029488;28;20052;-75
2022/04/19 12:57:30;;;;;;;3.88;1.27;;;24.50;38.80;;;;;;5035698;28;20548;-76
2022/04/19 12:59:57;;;;;;;4.35;1.20;;;24.70;38.10;;;;;;5034783;28;20037;-75
2022/04/19 13:02:23;;;;;;;4.13;1.13;;;24.80;38.50;;;;;;5052353;28;20024;-75
2022/04/19 13:04:49;;;;;;;4.72;1.17;;;24.70;38.50;;;;;;5051174;28;20021;-76
2022/04/19 13:12:44;;;;;;;4.25;1.73;;;24.70;38.90;;;;;;5045378;28;20028;-75
2022/04/19 13:15:11;;;;;;;5.20;1.52;;;24.60;38.20;;;;;;5053570;28;20037;-76
2022/04/19 13:17:39;;;;;;;4.63;1.90;;;24.70;38.40;;;;;;5053386;28;20033;-75
2022/04/19 13:20:06;;;;;;;2.75;0.77;;;24.90;37.00;;;;;;5036022;28;20470;-75
2022/04/19 13:22:32;;;;;;;5.38;1.83;;;24.80;39.50;;;;;;5053993;28;20480;-75
2022/04/19 13:24:58;;;;;;;3.90;1.25;;;25.00;38.40;;;;;;5053656;28;20021;-75
2022/04/19 13:27:25;;;;;;;4.50;1.40;;;25.10;37.40;;;;;;5053940;28;20524;-75
2022/04/19 13:29:52;;;;;;;4.53;1.42;;;25.20;39.40;;;;;;5054281;28;20036;-75
2022/04/19 13:32:19;;;;;;;3.58;1.48;;;25.30;37.80;;;;;;5054113;28;20032;-75
2022/04/19 13:34:44;;;;;;;2.63;0.80;;;25.20;38.40;;;;;;5053452;28;20021;-76
2022/04/19 13:37:10;;;;;;;3.10;0.90;;;25.20;38.70;;;;;;5035212;28;20535;-75
2022/04/19 13:39:36;;;;;;;5.13;1.30;;;25.40;38.40;;;;;;5053954;28;20021;-75
2022/04/19 13:42:02;;;;;;;2.78;1.00;;;25.40;38.10;;;;;;5053350;28;20033;-75